sensor_id;sensor_type;location;lat;lon;timestamp;P1;durP1;ratioP1;P2;durP2;ratioP2
80799;SDS011;70202;52.238;10.680;2023-09-19T00:00:56;0.10;;;0.00;;
80799;SDS011;70202;52.238;10.680;2023-09-19T00:01:57;0.05;;;0.00;;
80799;SDS011;70202;52.238;10.680;2023-09-19T00:02:58;0.00;;;0.00;;
80799;SDS011;70202;52.238;10.680;2023-09-19T00:04:01;0.08;;;0.05;;
80799;SDS011;70202;52.238;10.680;2023-09-19T00:05:02;0.00;;;0.00;;
80799;SDS011;70202;52.238;10.680;2023-09-19T00:06:03;0.00;;;0.00;;
80799;SDS011;70202;52.238;10.680;2023-09-19T00:07:05;0.32;;;0.10;;
80799;SDS011;70202;52.238;10.680;2023-09-19T00:08:05;0.10;;;0.08;;
80799;SDS011;70202;52.238;10.680;2023-09-19T00:09:06;0.35;;;0.10;;
80799;SDS011;70202;52.238;10.680;2023-09-19T00:10:10;0.10;;;0.08;;
80799;SDS011;70202;52.238;10.680;2023-09-19T00:11:11;0.08;;;0.00;;
80799;SDS011;70202;52.238;10.680;2023-09-19T00:12:12;0.52;;;0.20;;
80799;SDS011;70202;52.238;10.680;2023-09-19T00:13:13;0.30;;;0.10;;
80799;SDS011;70202;52.238;10.680;2023-09-19T00:14:14;0.38;;;0.10;;
80799;SDS011;70202;52.238;10.680;2023-09-19T00:15:14;0.10;;;0.03;;
80799;SDS011;70202;52.238;10.680;2023-09-19T00:16:17;0.20;;;0.10;;
80799;SDS011;70202;52.238;10.680;2023-09-19T00:17:19;0.73;;;0.17;;
80799;SDS011;70202;52.238;10.680;2023-09-19T00:18:19;0.00;;;0.00;;
80799;SDS011;70202;52.238;10.680;2023-09-19T00:19:21;0.10;;;0.10;;
80799;SDS011;70202;52.238;10.680;2023-09-19T00:20:23;0.10;;;0.10;;
80799;SDS011;70202;52.238;10.680;2023-09-19T00:21:24;0.10;;;0.10;;
80799;SDS011;70202;52.238;10.680;2023-09-19T00:22:24;0.30;;;0.03;;
80799;SDS011;70202;52.238;10.680;2023-09-19T00:23:26;0.20;;;0.10;;
80799;SDS011;70202;52.238;10.680;2023-09-19T00:24:28;0.10;;;0.10;;
80799;SDS011;70202;52.238;10.680;2023-09-19T00:25:28;0.10;;;0.10;;
80799;SDS011;70202;52.238;10.680;2023-09-19T00:26:28;0.28;;;0.10;;
80799;SDS011;70202;52.238;10.680;2023-09-19T00:27:30;0.20;;;0.00;;
80799;SDS011;70202;52.238;10.680;2023-09-19T00:28:31;0.03;;;0.03;;
80799;SDS011;70202;52.238;10.680;2023-09-19T00:29:31;0.10;;;0.10;;
80799;SDS011;70202;52.238;10.680;2023-09-19T00:30:33;0.00;;;0.00;;
80799;SDS011;70202;52.238;10.680;2023-09-19T00:31:34;0.40;;;0.13;;
80799;SDS011;70202;52.238;10.680;2023-09-19T00:32:37;0.10;;;0.10;;
80799;SDS011;70202;52.238;10.680;2023-09-19T00:33:37;0.20;;;0.20;;
80799;SDS011;70202;52.238;10.680;2023-09-19T00:34:38;0.00;;;0.00;;
80799;SDS011;70202;52.238;10.680;2023-09-19T00:35:38;0.10;;;0.10;;
80799;SDS011;70202;52.238;10.680;2023-09-19T00:36:39;0.25;;;0.08;;
80799;SDS011;70202;52.238;10.680;2023-09-19T00:37:39;0.10;;;0.10;;
80799;SDS011;70202;52.238;10.680;2023-09-19T00:38:40;0.22;;;0.10;;
80799;SDS011;70202;52.238;10.680;2023-09-19T00:39:40;0.08;;;0.08;;
80799;SDS011;70202;52.238;10.680;2023-09-19T00:40:43;0.00;;;0.00;;
80799;SDS011;70202;52.238;10.680;2023-09-19T00:41:44;0.00;;;0.00;;
80799;SDS011;70202;52.238;10.680;2023-09-19T00:42:45;0.30;;;0.10;;
80799;SDS011;70202;52.238;10.680;2023-09-19T00:43:47;0.20;;;0.10;;
80799;SDS011;70202;52.238;10.680;2023-09-19T00:44:50;0.38;;;0.10;;
80799;SDS011;70202;52.238;10.680;2023-09-19T00:45:51;0.20;;;0.10;;
80799;SDS011;70202;52.238;10.680;2023-09-19T00:46:53;0.10;;;0.10;;
80799;SDS011;70202;52.238;10.680;2023-09-19T00:47:53;0.10;;;0.08;;
80799;SDS011;70202;52.238;10.680;2023-09-19T00:48:54;0.20;;;0.08;;
80799;SDS011;70202;52.238;10.680;2023-09-19T00:49:54;0.30;;;0.10;;
80799;SDS011;70202;52.238;10.680;2023-09-19T00:50:56;0.85;;;0.30;;
80799;SDS011;70202;52.238;10.680;2023-09-19T00:51:58;0.30;;;0.20;;
80799;SDS011;70202;52.238;10.680;2023-09-19T00:52:59;0.22;;;0.20;;
80799;SDS011;70202;52.238;10.680;2023-09-19T00:54:00;0.45;;;0.10;;
80799;SDS011;70202;52.238;10.680;2023-09-19T00:55:02;0.10;;;0.10;;
80799;SDS011;70202;52.238;10.680;2023-09-19T00:56:04;0.25;;;0.10;;
80799;SDS011;70202;52.238;10.680;2023-09-19T00:57:08;0.20;;;0.20;;
80799;SDS011;70202;52.238;10.680;2023-09-19T00:58:08;0.13;;;0.10;;
80799;SDS011;70202;52.238;10.680;2023-09-19T00:59:10;0.43;;;0.20;;
80799;SDS011;70202;52.238;10.680;2023-09-19T01:00:11;0.00;;;0.00;;
80799;SDS011;70202;52.238;10.680;2023-09-19T01:01:15;0.32;;;0.20;;
80799;SDS011;70202;52.238;10.680;2023-09-19T01:02:17;0.00;;;0.00;;
80799;SDS011;70202;52.238;10.680;2023-09-19T01:03:17;0.25;;;0.10;;
80799;SDS011;70202;52.238;10.680;2023-09-19T01:04:18;0.35;;;0.10;;
80799;SDS011;70202;52.238;10.680;2023-09-19T01:05:18;0.00;;;0.00;;
80799;SDS011;70202;52.238;10.680;2023-09-19T01:06:19;0.17;;;0.10;;
80799;SDS011;70202;52.238;10.680;2023-09-19T01:07:20;0.20;;;0.10;;
80799;SDS011;70202;52.238;10.680;2023-09-19T01:08:22;0.43;;;0.17;;
80799;SDS011;70202;52.238;10.680;2023-09-19T01:09:23;0.10;;;0.00;;
80799;SDS011;70202;52.238;10.680;2023-09-19T01:10:23;0.30;;;0.10;;
80799;SDS011;70202;52.238;10.680;2023-09-19T01:11:46;0.20;;;0.20;;
80799;SDS011;70202;52.238;10.680;2023-09-19T01:14:10;0.60;;;0.20;;
80799;SDS011;70202;52.238;10.680;2023-09-19T01:18:05;0.10;;;0.10;;
80799;SDS011;70202;52.238;10.680;2023-09-19T01:20:53;0.10;;;0.00;;
80799;SDS011;70202;52.238;10.680;2023-09-19T01:26:30;0.30;;;0.10;;
80799;SDS011;70202;52.238;10.680;2023-09-19T01:30:32;0.08;;;0.08;;
80799;SDS011;70202;52.238;10.680;2023-09-19T01:31:36;0.20;;;0.20;;
80799;SDS011;70202;52.238;10.680;2023-09-19T01:32:39;0.28;;;0.10;;
80799;SDS011;70202;52.238;10.680;2023-09-19T01:33:56;0.22;;;0.10;;
80799;SDS011;70202;52.238;10.680;2023-09-19T01:35:01;0.45;;;0.20;;
80799;SDS011;70202;52.238;10.680;2023-09-19T01:36:04;0.32;;;0.17;;
80799;SDS011;70202;52.238;10.680;2023-09-19T01:37:05;0.38;;;0.13;;
80799;SDS011;70202;52.238;10.680;2023-09-19T01:38:06;0.60;;;0.30;;
80799;SDS011;70202;52.238;10.680;2023-09-19T01:39:10;0.35;;;0.15;;
80799;SDS011;70202;52.238;10.680;2023-09-19T01:40:14;0.10;;;0.10;;
80799;SDS011;70202;52.238;10.680;2023-09-19T01:41:21;0.05;;;0.03;;
80799;SDS011;70202;52.238;10.680;2023-09-19T01:43:48;0.65;;;0.20;;
80799;SDS011;70202;52.238;10.680;2023-09-19T01:45:03;0.60;;;0.22;;
80799;SDS011;70202;52.238;10.680;2023-09-19T01:47:19;0.70;;;0.30;;
80799;SDS011;70202;52.238;10.680;2023-09-19T01:50:02;0.00;;;0.00;;
80799;SDS011;70202;52.238;10.680;2023-09-19T01:51:20;0.40;;;0.20;;
80799;SDS011;70202;52.238;10.680;2023-09-19T01:54:02;0.82;;;0.30;;
80799;SDS011;70202;52.238;10.680;2023-09-19T01:55:07;0.38;;;0.17;;
80799;SDS011;70202;52.238;10.680;2023-09-19T01:56:12;0.20;;;0.10;;
80799;SDS011;70202;52.238;10.680;2023-09-19T01:57:29;0.30;;;0.13;;
80799;SDS011;70202;52.238;10.680;2023-09-19T01:58:41;0.10;;;0.10;;
80799;SDS011;70202;52.238;10.680;2023-09-19T02:00:01;0.20;;;0.10;;
80799;SDS011;70202;52.238;10.680;2023-09-19T02:01:06;0.10;;;0.10;;
80799;SDS011;70202;52.238;10.680;2023-09-19T02:02:11;0.00;;;0.00;;
80799;SDS011;70202;52.238;10.680;2023-09-19T02:03:12;0.57;;;0.10;;
80799;SDS011;70202;52.238;10.680;2023-09-19T02:04:13;0.17;;;0.10;;
80799;SDS011;70202;52.238;10.680;2023-09-19T02:05:21;0.50;;;0.10;;
80799;SDS011;70202;52.238;10.680;2023-09-19T02:06:24;0.08;;;0.05;;
80799;SDS011;70202;52.238;10.680;2023-09-19T02:07:25;0.10;;;0.10;;
80799;SDS011;70202;52.238;10.680;2023-09-19T02:08:27;0.52;;;0.22;;
80799;SDS011;70202;52.238;10.680;2023-09-19T02:09:27;0.30;;;0.25;;
80799;SDS011;70202;52.238;10.680;2023-09-19T02:10:28;0.10;;;0.10;;
80799;SDS011;70202;52.238;10.680;2023-09-19T02:11:28;0.57;;;0.20;;
80799;SDS011;70202;52.238;10.680;2023-09-19T02:12:29;0.10;;;0.10;;
80799;SDS011;70202;52.238;10.680;2023-09-19T02:13:31;0.10;;;0.10;;
80799;SDS011;70202;52.238;10.680;2023-09-19T02:14:31;0.60;;;0.22;;
80799;SDS011;70202;52.238;10.680;2023-09-19T02:15:32;0.10;;;0.10;;
80799;SDS011;70202;52.238;10.680;2023-09-19T02:16:34;0.30;;;0.15;;
80799;SDS011;70202;52.238;10.680;2023-09-19T02:17:35;0.20;;;0.20;;
80799;SDS011;70202;52.238;10.680;2023-09-19T02:18:35;0.22;;;0.10;;
80799;SDS011;70202;52.238;10.680;2023-09-19T02:19:36;0.45;;;0.20;;
80799;SDS011;70202;52.238;10.680;2023-09-19T02:20:39;0.45;;;0.17;;
80799;SDS011;70202;52.238;10.680;2023-09-19T02:21:39;0.20;;;0.13;;
80799;SDS011;70202;52.238;10.680;2023-09-19T02:22:41;0.25;;;0.13;;
80799;SDS011;70202;52.238;10.680;2023-09-19T02:23:41;0.20;;;0.10;;
80799;SDS011;70202;52.238;10.680;2023-09-19T02:24:42;1.02;;;0.28;;
80799;SDS011;70202;52.238;10.680;2023-09-19T02:25:42;0.17;;;0.17;;
80799;SDS011;70202;52.238;10.680;2023-09-19T02:26:43;0.63;;;0.17;;
80799;SDS011;70202;52.238;10.680;2023-09-19T02:27:43;0.35;;;0.13;;
80799;SDS011;70202;52.238;10.680;2023-09-19T02:28:44;0.10;;;0.10;;
80799;SDS011;70202;52.238;10.680;2023-09-19T02:29:45;0.60;;;0.20;;
80799;SDS011;70202;52.238;10.680;2023-09-19T02:30:49;0.30;;;0.10;;
80799;SDS011;70202;52.238;10.680;2023-09-19T02:31:50;0.47;;;0.20;;
80799;SDS011;70202;52.238;10.680;2023-09-19T02:32:50;0.10;;;0.10;;
80799;SDS011;70202;52.238;10.680;2023-09-19T02:33:51;0.55;;;0.17;;
80799;SDS011;70202;52.238;10.680;2023-09-19T02:34:51;0.47;;;0.20;;
80799;SDS011;70202;52.238;10.680;2023-09-19T02:35:55;0.13;;;0.05;;
80799;SDS011;70202;52.238;10.680;2023-09-19T02:36:57;0.35;;;0.20;;
80799;SDS011;70202;52.238;10.680;2023-09-19T02:37:58;0.10;;;0.10;;
80799;SDS011;70202;52.238;10.680;2023-09-19T02:38:58;0.57;;;0.28;;
80799;SDS011;70202;52.238;10.680;2023-09-19T02:39:59;0.60;;;0.38;;
80799;SDS011;70202;52.238;10.680;2023-09-19T02:40:59;0.45;;;0.22;;
80799;SDS011;70202;52.238;10.680;2023-09-19T02:42:00;0.65;;;0.10;;
80799;SDS011;70202;52.238;10.680;2023-09-19T02:43:00;0.30;;;0.20;;
80799;SDS011;70202;52.238;10.680;2023-09-19T02:44:01;0.95;;;0.20;;
80799;SDS011;70202;52.238;10.680;2023-09-19T02:45:02;0.98;;;0.30;;
80799;SDS011;70202;52.238;10.680;2023-09-19T02:46:05;0.38;;;0.10;;
80799;SDS011;70202;52.238;10.680;2023-09-19T02:47:06;0.15;;;0.15;;
80799;SDS011;70202;52.238;10.680;2023-09-19T02:48:07;0.25;;;0.10;;
80799;SDS011;70202;52.238;10.680;2023-09-19T02:49:07;0.93;;;0.38;;
80799;SDS011;70202;52.238;10.680;2023-09-19T02:50:08;0.55;;;0.20;;
80799;SDS011;70202;52.238;10.680;2023-09-19T02:51:11;0.10;;;0.10;;
80799;SDS011;70202;52.238;10.680;2023-09-19T02:52:11;0.17;;;0.10;;
80799;SDS011;70202;52.238;10.680;2023-09-19T02:53:14;1.02;;;0.25;;
80799;SDS011;70202;52.238;10.680;2023-09-19T02:54:15;0.25;;;0.20;;
80799;SDS011;70202;52.238;10.680;2023-09-19T02:55:18;0.85;;;0.20;;
80799;SDS011;70202;52.238;10.680;2023-09-19T02:56:19;0.47;;;0.22;;
80799;SDS011;70202;52.238;10.680;2023-09-19T02:57:20;0.43;;;0.20;;
80799;SDS011;70202;52.238;10.680;2023-09-19T02:58:20;0.32;;;0.22;;
80799;SDS011;70202;52.238;10.680;2023-09-19T02:59:20;0.40;;;0.20;;
80799;SDS011;70202;52.238;10.680;2023-09-19T03:00:21;0.20;;;0.20;;
80799;SDS011;70202;52.238;10.680;2023-09-19T03:01:22;0.40;;;0.17;;
80799;SDS011;70202;52.238;10.680;2023-09-19T03:02:23;0.32;;;0.20;;
80799;SDS011;70202;52.238;10.680;2023-09-19T03:03:24;0.32;;;0.15;;
80799;SDS011;70202;52.238;10.680;2023-09-19T03:04:24;0.85;;;0.30;;
80799;SDS011;70202;52.238;10.680;2023-09-19T03:05:26;0.22;;;0.20;;
80799;SDS011;70202;52.238;10.680;2023-09-19T03:06:30;1.15;;;0.30;;
80799;SDS011;70202;52.238;10.680;2023-09-19T03:07:31;0.22;;;0.22;;
80799;SDS011;70202;52.238;10.680;2023-09-19T03:08:31;1.02;;;0.28;;
80799;SDS011;70202;52.238;10.680;2023-09-19T03:09:35;0.10;;;0.10;;
80799;SDS011;70202;52.238;10.680;2023-09-19T03:10:36;1.48;;;0.38;;
80799;SDS011;70202;52.238;10.680;2023-09-19T03:11:38;0.45;;;0.20;;
80799;SDS011;70202;52.238;10.680;2023-09-19T03:12:40;0.50;;;0.20;;
80799;SDS011;70202;52.238;10.680;2023-09-19T03:13:40;0.17;;;0.17;;
80799;SDS011;70202;52.238;10.680;2023-09-19T03:14:42;0.47;;;0.20;;
80799;SDS011;70202;52.238;10.680;2023-09-19T03:15:42;0.35;;;0.13;;
80799;SDS011;70202;52.238;10.680;2023-09-19T03:16:50;0.45;;;0.30;;
80799;SDS011;70202;52.238;10.680;2023-09-19T03:17:52;0.28;;;0.22;;
80799;SDS011;70202;52.238;10.680;2023-09-19T03:18:53;0.10;;;0.10;;
80799;SDS011;70202;52.238;10.680;2023-09-19T03:19:54;0.13;;;0.13;;
80799;SDS011;70202;52.238;10.680;2023-09-19T03:20:55;0.43;;;0.10;;
80799;SDS011;70202;52.238;10.680;2023-09-19T03:21:56;0.70;;;0.35;;
80799;SDS011;70202;52.238;10.680;2023-09-19T03:22:57;0.32;;;0.20;;
80799;SDS011;70202;52.238;10.680;2023-09-19T03:23:58;0.15;;;0.15;;
80799;SDS011;70202;52.238;10.680;2023-09-19T03:24:58;0.35;;;0.22;;
80799;SDS011;70202;52.238;10.680;2023-09-19T03:26:00;0.95;;;0.35;;
80799;SDS011;70202;52.238;10.680;2023-09-19T03:27:01;0.45;;;0.20;;
80799;SDS011;70202;52.238;10.680;2023-09-19T03:28:02;0.55;;;0.28;;
80799;SDS011;70202;52.238;10.680;2023-09-19T03:29:05;0.30;;;0.20;;
80799;SDS011;70202;52.238;10.680;2023-09-19T03:30:07;0.47;;;0.20;;
80799;SDS011;70202;52.238;10.680;2023-09-19T03:31:13;0.28;;;0.20;;
80799;SDS011;70202;52.238;10.680;2023-09-19T03:32:13;0.45;;;0.22;;
80799;SDS011;70202;52.238;10.680;2023-09-19T03:33:14;0.20;;;0.20;;
80799;SDS011;70202;52.238;10.680;2023-09-19T03:34:14;0.50;;;0.20;;
80799;SDS011;70202;52.238;10.680;2023-09-19T03:35:15;0.17;;;0.17;;
80799;SDS011;70202;52.238;10.680;2023-09-19T03:36:16;0.50;;;0.22;;
80799;SDS011;70202;52.238;10.680;2023-09-19T03:37:17;1.08;;;0.38;;
80799;SDS011;70202;52.238;10.680;2023-09-19T03:38:18;0.45;;;0.20;;
80799;SDS011;70202;52.238;10.680;2023-09-19T03:39:18;0.40;;;0.20;;
80799;SDS011;70202;52.238;10.680;2023-09-19T03:40:19;0.20;;;0.20;;
80799;SDS011;70202;52.238;10.680;2023-09-19T03:41:21;0.45;;;0.30;;
80799;SDS011;70202;52.238;10.680;2023-09-19T03:42:22;0.47;;;0.28;;
80799;SDS011;70202;52.238;10.680;2023-09-19T03:43:25;0.60;;;0.20;;
80799;SDS011;70202;52.238;10.680;2023-09-19T03:44:25;1.10;;;0.35;;
80799;SDS011;70202;52.238;10.680;2023-09-19T03:45:26;0.75;;;0.30;;
80799;SDS011;70202;52.238;10.680;2023-09-19T03:46:27;0.82;;;0.28;;
80799;SDS011;70202;52.238;10.680;2023-09-19T03:47:28;0.88;;;0.30;;
80799;SDS011;70202;52.238;10.680;2023-09-19T03:48:28;0.10;;;0.08;;
80799;SDS011;70202;52.238;10.680;2023-09-19T03:49:29;0.10;;;0.10;;
80799;SDS011;70202;52.238;10.680;2023-09-19T03:50:30;0.28;;;0.20;;
80799;SDS011;70202;52.238;10.680;2023-09-19T03:51:33;1.02;;;0.30;;
80799;SDS011;70202;52.238;10.680;2023-09-19T03:52:34;0.52;;;0.30;;
80799;SDS011;70202;52.238;10.680;2023-09-19T03:53:34;0.30;;;0.20;;
80799;SDS011;70202;52.238;10.680;2023-09-19T03:54:35;0.82;;;0.35;;
80799;SDS011;70202;52.238;10.680;2023-09-19T03:55:35;0.15;;;0.10;;
80799;SDS011;70202;52.238;10.680;2023-09-19T03:56:35;0.38;;;0.20;;
80799;SDS011;70202;52.238;10.680;2023-09-19T03:57:36;0.65;;;0.43;;
80799;SDS011;70202;52.238;10.680;2023-09-19T03:58:36;0.80;;;0.32;;
80799;SDS011;70202;52.238;10.680;2023-09-19T03:59:39;0.47;;;0.20;;
80799;SDS011;70202;52.238;10.680;2023-09-19T04:00:39;0.40;;;0.22;;
80799;SDS011;70202;52.238;10.680;2023-09-19T04:01:40;0.20;;;0.20;;
80799;SDS011;70202;52.238;10.680;2023-09-19T04:02:41;0.57;;;0.30;;
80799;SDS011;70202;52.238;10.680;2023-09-19T04:03:41;0.50;;;0.30;;
80799;SDS011;70202;52.238;10.680;2023-09-19T04:04:48;0.77;;;0.40;;
80799;SDS011;70202;52.238;10.680;2023-09-19T04:05:50;0.98;;;0.50;;
80799;SDS011;70202;52.238;10.680;2023-09-19T04:06:50;0.47;;;0.25;;
80799;SDS011;70202;52.238;10.680;2023-09-19T04:07:51;0.90;;;0.40;;
80799;SDS011;70202;52.238;10.680;2023-09-19T04:08:51;1.00;;;0.43;;
80799;SDS011;70202;52.238;10.680;2023-09-19T04:09:52;0.30;;;0.25;;
80799;SDS011;70202;52.238;10.680;2023-09-19T04:10:53;0.32;;;0.20;;
80799;SDS011;70202;52.238;10.680;2023-09-19T04:11:54;0.32;;;0.30;;
80799;SDS011;70202;52.238;10.680;2023-09-19T04:12:54;0.55;;;0.40;;
80799;SDS011;70202;52.238;10.680;2023-09-19T04:13:56;0.55;;;0.32;;
80799;SDS011;70202;52.238;10.680;2023-09-19T04:14:57;0.50;;;0.30;;
80799;SDS011;70202;52.238;10.680;2023-09-19T04:15:57;0.43;;;0.28;;
80799;SDS011;70202;52.238;10.680;2023-09-19T04:16:57;0.40;;;0.30;;
80799;SDS011;70202;52.238;10.680;2023-09-19T04:17:58;0.73;;;0.40;;
80799;SDS011;70202;52.238;10.680;2023-09-19T04:18:58;0.20;;;0.20;;
80799;SDS011;70202;52.238;10.680;2023-09-19T04:19:59;0.65;;;0.40;;
80799;SDS011;70202;52.238;10.680;2023-09-19T04:20:59;0.20;;;0.20;;
80799;SDS011;70202;52.238;10.680;2023-09-19T04:22:03;0.68;;;0.32;;
80799;SDS011;70202;52.238;10.680;2023-09-19T04:23:04;0.30;;;0.30;;
80799;SDS011;70202;52.238;10.680;2023-09-19T04:24:05;0.80;;;0.40;;
80799;SDS011;70202;52.238;10.680;2023-09-19T04:25:06;0.93;;;0.30;;
80799;SDS011;70202;52.238;10.680;2023-09-19T04:26:07;0.40;;;0.40;;
80799;SDS011;70202;52.238;10.680;2023-09-19T04:27:07;0.30;;;0.20;;
80799;SDS011;70202;52.238;10.680;2023-09-19T04:28:09;0.80;;;0.32;;
80799;SDS011;70202;52.238;10.680;2023-09-19T04:29:12;0.30;;;0.20;;
80799;SDS011;70202;52.238;10.680;2023-09-19T04:30:14;0.65;;;0.30;;
80799;SDS011;70202;52.238;10.680;2023-09-19T04:31:14;1.00;;;0.43;;
80799;SDS011;70202;52.238;10.680;2023-09-19T04:32:16;0.38;;;0.30;;
80799;SDS011;70202;52.238;10.680;2023-09-19T04:33:17;0.43;;;0.22;;
80799;SDS011;70202;52.238;10.680;2023-09-19T04:34:17;0.32;;;0.30;;
80799;SDS011;70202;52.238;10.680;2023-09-19T04:35:18;0.88;;;0.50;;
80799;SDS011;70202;52.238;10.680;2023-09-19T04:36:18;0.40;;;0.28;;
80799;SDS011;70202;52.238;10.680;2023-09-19T04:37:21;0.52;;;0.40;;
80799;SDS011;70202;52.238;10.680;2023-09-19T04:38:21;0.60;;;0.40;;
80799;SDS011;70202;52.238;10.680;2023-09-19T04:39:22;0.82;;;0.40;;
80799;SDS011;70202;52.238;10.680;2023-09-19T04:40:26;0.73;;;0.47;;
80799;SDS011;70202;52.238;10.680;2023-09-19T04:41:29;0.40;;;0.35;;
80799;SDS011;70202;52.238;10.680;2023-09-19T04:42:30;0.13;;;0.13;;
80799;SDS011;70202;52.238;10.680;2023-09-19T04:43:30;0.73;;;0.32;;
80799;SDS011;70202;52.238;10.680;2023-09-19T04:44:30;0.55;;;0.43;;
80799;SDS011;70202;52.238;10.680;2023-09-19T04:45:31;0.68;;;0.45;;
80799;SDS011;70202;52.238;10.680;2023-09-19T04:46:31;0.70;;;0.50;;
80799;SDS011;70202;52.238;10.680;2023-09-19T04:47:32;0.43;;;0.40;;
80799;SDS011;70202;52.238;10.680;2023-09-19T04:48:32;0.90;;;0.47;;
80799;SDS011;70202;52.238;10.680;2023-09-19T04:49:34;0.80;;;0.40;;
80799;SDS011;70202;52.238;10.680;2023-09-19T04:50:35;1.15;;;0.32;;
80799;SDS011;70202;52.238;10.680;2023-09-19T04:51:36;1.05;;;0.50;;
80799;SDS011;70202;52.238;10.680;2023-09-19T04:52:38;1.38;;;0.50;;
80799;SDS011;70202;52.238;10.680;2023-09-19T04:53:39;1.13;;;0.47;;
80799;SDS011;70202;52.238;10.680;2023-09-19T04:54:41;0.50;;;0.40;;
80799;SDS011;70202;52.238;10.680;2023-09-19T04:55:41;1.33;;;0.57;;
80799;SDS011;70202;52.238;10.680;2023-09-19T04:56:42;0.82;;;0.40;;
80799;SDS011;70202;52.238;10.680;2023-09-19T04:57:45;0.82;;;0.57;;
80799;SDS011;70202;52.238;10.680;2023-09-19T04:58:47;0.57;;;0.30;;
80799;SDS011;70202;52.238;10.680;2023-09-19T04:59:47;0.73;;;0.40;;
80799;SDS011;70202;52.238;10.680;2023-09-19T05:00:48;0.65;;;0.40;;
80799;SDS011;70202;52.238;10.680;2023-09-19T05:01:48;0.65;;;0.32;;
80799;SDS011;70202;52.238;10.680;2023-09-19T05:02:49;0.65;;;0.30;;
80799;SDS011;70202;52.238;10.680;2023-09-19T05:03:54;0.25;;;0.20;;
80799;SDS011;70202;52.238;10.680;2023-09-19T05:04:54;0.82;;;0.35;;
80799;SDS011;70202;52.238;10.680;2023-09-19T05:05:55;0.70;;;0.40;;
80799;SDS011;70202;52.238;10.680;2023-09-19T05:06:56;0.77;;;0.50;;
80799;SDS011;70202;52.238;10.680;2023-09-19T05:07:56;0.68;;;0.30;;
80799;SDS011;70202;52.238;10.680;2023-09-19T05:08:57;0.35;;;0.20;;
80799;SDS011;70202;52.238;10.680;2023-09-19T05:09:57;0.20;;;0.20;;
80799;SDS011;70202;52.238;10.680;2023-09-19T05:10:57;0.82;;;0.45;;
80799;SDS011;70202;52.238;10.680;2023-09-19T05:11:58;0.80;;;0.40;;
80799;SDS011;70202;52.238;10.680;2023-09-19T05:12:58;0.30;;;0.30;;
80799;SDS011;70202;52.238;10.680;2023-09-19T05:13:59;0.95;;;0.30;;
80799;SDS011;70202;52.238;10.680;2023-09-19T05:15:06;0.40;;;0.22;;
80799;SDS011;70202;52.238;10.680;2023-09-19T05:16:07;1.15;;;0.35;;
80799;SDS011;70202;52.238;10.680;2023-09-19T05:17:10;1.05;;;0.50;;
80799;SDS011;70202;52.238;10.680;2023-09-19T05:18:10;0.80;;;0.45;;
80799;SDS011;70202;52.238;10.680;2023-09-19T05:19:10;0.70;;;0.20;;
80799;SDS011;70202;52.238;10.680;2023-09-19T05:20:12;0.80;;;0.40;;
80799;SDS011;70202;52.238;10.680;2023-09-19T05:21:15;0.55;;;0.30;;
80799;SDS011;70202;52.238;10.680;2023-09-19T05:22:15;0.98;;;0.43;;
80799;SDS011;70202;52.238;10.680;2023-09-19T05:23:18;0.93;;;0.35;;
80799;SDS011;70202;52.238;10.680;2023-09-19T05:24:21;0.50;;;0.35;;
80799;SDS011;70202;52.238;10.680;2023-09-19T05:25:23;0.52;;;0.32;;
80799;SDS011;70202;52.238;10.680;2023-09-19T05:26:24;0.70;;;0.40;;
80799;SDS011;70202;52.238;10.680;2023-09-19T05:27:25;0.90;;;0.45;;
80799;SDS011;70202;52.238;10.680;2023-09-19T05:28:26;0.60;;;0.40;;
80799;SDS011;70202;52.238;10.680;2023-09-19T05:29:26;0.40;;;0.30;;
80799;SDS011;70202;52.238;10.680;2023-09-19T05:30:29;0.73;;;0.32;;
80799;SDS011;70202;52.238;10.680;2023-09-19T05:31:29;0.85;;;0.43;;
80799;SDS011;70202;52.238;10.680;2023-09-19T05:32:30;0.47;;;0.40;;
80799;SDS011;70202;52.238;10.680;2023-09-19T05:33:30;1.10;;;0.50;;
80799;SDS011;70202;52.238;10.680;2023-09-19T05:34:31;0.50;;;0.30;;
80799;SDS011;70202;52.238;10.680;2023-09-19T05:35:32;1.27;;;0.43;;
80799;SDS011;70202;52.238;10.680;2023-09-19T05:36:32;1.08;;;0.55;;
80799;SDS011;70202;52.238;10.680;2023-09-19T05:37:33;0.90;;;0.47;;
80799;SDS011;70202;52.238;10.680;2023-09-19T05:38:34;1.35;;;0.43;;
80799;SDS011;70202;52.238;10.680;2023-09-19T05:39:35;0.95;;;0.40;;
80799;SDS011;70202;52.238;10.680;2023-09-19T05:40:37;0.65;;;0.30;;
80799;SDS011;70202;52.238;10.680;2023-09-19T05:41:38;0.52;;;0.30;;
80799;SDS011;70202;52.238;10.680;2023-09-19T05:42:40;0.60;;;0.38;;
80799;SDS011;70202;52.238;10.680;2023-09-19T05:43:41;1.13;;;0.50;;
80799;SDS011;70202;52.238;10.680;2023-09-19T05:44:42;0.95;;;0.40;;
80799;SDS011;70202;52.238;10.680;2023-09-19T05:45:42;1.15;;;0.40;;
80799;SDS011;70202;52.238;10.680;2023-09-19T05:46:42;0.57;;;0.30;;
80799;SDS011;70202;52.238;10.680;2023-09-19T05:47:43;0.98;;;0.50;;
80799;SDS011;70202;52.238;10.680;2023-09-19T05:48:45;0.63;;;0.32;;
80799;SDS011;70202;52.238;10.680;2023-09-19T05:49:49;1.35;;;0.73;;
80799;SDS011;70202;52.238;10.680;2023-09-19T05:50:50;0.25;;;0.22;;
80799;SDS011;70202;52.238;10.680;2023-09-19T05:51:51;0.43;;;0.40;;
80799;SDS011;70202;52.238;10.680;2023-09-19T05:52:55;1.10;;;0.50;;
80799;SDS011;70202;52.238;10.680;2023-09-19T05:53:58;1.45;;;0.50;;
80799;SDS011;70202;52.238;10.680;2023-09-19T05:54:58;0.70;;;0.38;;
80799;SDS011;70202;52.238;10.680;2023-09-19T05:55:59;0.57;;;0.50;;
80799;SDS011;70202;52.238;10.680;2023-09-19T05:57:01;0.68;;;0.43;;
80799;SDS011;70202;52.238;10.680;2023-09-19T05:58:01;1.15;;;0.45;;
80799;SDS011;70202;52.238;10.680;2023-09-19T05:59:03;0.35;;;0.22;;
80799;SDS011;70202;52.238;10.680;2023-09-19T06:00:05;1.20;;;0.50;;
80799;SDS011;70202;52.238;10.680;2023-09-19T06:01:10;0.95;;;0.88;;
80799;SDS011;70202;52.238;10.680;2023-09-19T06:02:11;0.85;;;0.40;;
80799;SDS011;70202;52.238;10.680;2023-09-19T06:03:12;0.70;;;0.40;;
80799;SDS011;70202;52.238;10.680;2023-09-19T06:04:14;0.77;;;0.35;;
80799;SDS011;70202;52.238;10.680;2023-09-19T06:05:14;0.85;;;0.40;;
80799;SDS011;70202;52.238;10.680;2023-09-19T06:06:14;1.10;;;0.40;;
80799;SDS011;70202;52.238;10.680;2023-09-19T06:07:15;0.40;;;0.40;;
80799;SDS011;70202;52.238;10.680;2023-09-19T06:08:16;0.85;;;0.40;;
80799;SDS011;70202;52.238;10.680;2023-09-19T06:09:16;0.63;;;0.50;;
80799;SDS011;70202;52.238;10.680;2023-09-19T06:10:17;1.58;;;0.60;;
80799;SDS011;70202;52.238;10.680;2023-09-19T06:11:17;1.15;;;0.52;;
80799;SDS011;70202;52.238;10.680;2023-09-19T06:12:20;0.75;;;0.40;;
80799;SDS011;70202;52.238;10.680;2023-09-19T06:13:20;1.00;;;0.45;;
80799;SDS011;70202;52.238;10.680;2023-09-19T06:14:21;1.00;;;0.50;;
80799;SDS011;70202;52.238;10.680;2023-09-19T06:15:23;1.02;;;0.50;;
80799;SDS011;70202;52.238;10.680;2023-09-19T06:16:25;0.70;;;0.35;;
80799;SDS011;70202;52.238;10.680;2023-09-19T06:17:25;0.40;;;0.40;;
80799;SDS011;70202;52.238;10.680;2023-09-19T06:18:27;0.80;;;0.50;;
80799;SDS011;70202;52.238;10.680;2023-09-19T06:19:29;0.95;;;0.50;;
80799;SDS011;70202;52.238;10.680;2023-09-19T06:20:29;1.10;;;0.45;;
80799;SDS011;70202;52.238;10.680;2023-09-19T06:21:30;0.88;;;0.40;;
80799;SDS011;70202;52.238;10.680;2023-09-19T06:22:32;1.20;;;0.50;;
80799;SDS011;70202;52.238;10.680;2023-09-19T06:23:33;1.70;;;0.70;;
80799;SDS011;70202;52.238;10.680;2023-09-19T06:24:34;0.30;;;0.30;;
80799;SDS011;70202;52.238;10.680;2023-09-19T06:25:34;0.68;;;0.50;;